sensor_id;sensor_type;location;lat;lon;timestamp;P1;durP1;ratioP1;P2;durP2;ratioP2
18190;SDS011;47004;51.366;12.348;2023-07-09T00:01:34;6.20;;;4.37;;
18190;SDS011;47004;51.366;12.348;2023-07-09T00:03:37;7.97;;;4.20;;
18190;SDS011;47004;51.366;12.348;2023-07-09T00:05:39;7.40;;;4.33;;
18190;SDS011;47004;51.366;12.348;2023-07-09T00:07:40;6.77;;;4.03;;
18190;SDS011;47004;51.366;12.348;2023-07-09T00:09:44;5.90;;;4.23;;
18190;SDS011;47004;51.366;12.348;2023-07-09T00:11:46;6.13;;;4.47;;
18190;SDS011;47004;51.366;12.348;2023-07-09T00:13:52;6.73;;;4.63;;
18190;SDS011;47004;51.366;12.348;2023-07-09T00:15:55;5.30;;;4.27;;
18190;SDS011;47004;51.366;12.348;2023-07-09T00:18:01;7.63;;;4.90;;
18190;SDS011;47004;51.366;12.348;2023-07-09T00:20:04;7.83;;;4.47;;
18190;SDS011;47004;51.366;12.348;2023-07-09T00:22:13;6.07;;;4.43;;
18190;SDS011;47004;51.366;12.348;2023-07-09T00:24:17;6.97;;;4.33;;
18190;SDS011;47004;51.366;12.348;2023-07-09T00:26:19;4.97;;;4.17;;
18190;SDS011;47004;51.366;12.348;2023-07-09T00:28:23;5.90;;;3.83;;
18190;SDS011;47004;51.366;12.348;2023-07-09T00:30:27;7.00;;;4.20;;
18190;SDS011;47004;51.366;12.348;2023-07-09T00:32:29;6.93;;;4.47;;
18190;SDS011;47004;51.366;12.348;2023-07-09T00:34:32;5.63;;;3.70;;
18190;SDS011;47004;51.366;12.348;2023-07-09T00:36:33;7.70;;;4.80;;
18190;SDS011;47004;51.366;12.348;2023-07-09T00:38:35;5.20;;;3.90;;
18190;SDS011;47004;51.366;12.348;2023-07-09T00:40:56;6.60;;;4.40;;
18190;SDS011;47004;51.366;12.348;2023-07-09T00:43:02;6.13;;;4.30;;
18190;SDS011;47004;51.366;12.348;2023-07-09T00:45:04;5.63;;;4.17;;
18190;SDS011;47004;51.366;12.348;2023-07-09T00:47:21;6.30;;;4.30;;
18190;SDS011;47004;51.366;12.348;2023-07-09T00:49:27;7.43;;;4.57;;
18190;SDS011;47004;51.366;12.348;2023-07-09T00:51:33;6.50;;;4.13;;
18190;SDS011;47004;51.366;12.348;2023-07-09T00:53:37;6.33;;;4.00;;
18190;SDS011;47004;51.366;12.348;2023-07-09T00:55:46;5.97;;;4.20;;
18190;SDS011;47004;51.366;12.348;2023-07-09T00:57:53;11.83;;;4.50;;
18190;SDS011;47004;51.366;12.348;2023-07-09T00:59:59;6.27;;;4.23;;
18190;SDS011;47004;51.366;12.348;2023-07-09T01:02:09;7.43;;;4.10;;
18190;SDS011;47004;51.366;12.348;2023-07-09T01:04:11;5.53;;;4.30;;
18190;SDS011;47004;51.366;12.348;2023-07-09T01:06:13;6.40;;;4.57;;
18190;SDS011;47004;51.366;12.348;2023-07-09T01:08:21;5.00;;;3.87;;
18190;SDS011;47004;51.366;12.348;2023-07-09T01:10:23;6.33;;;4.30;;
18190;SDS011;47004;51.366;12.348;2023-07-09T01:12:25;7.23;;;4.10;;
18190;SDS011;47004;51.366;12.348;2023-07-09T01:14:27;5.33;;;4.07;;
18190;SDS011;47004;51.366;12.348;2023-07-09T01:16:30;5.83;;;4.07;;
18190;SDS011;47004;51.366;12.348;2023-07-09T01:18:35;6.80;;;4.60;;
18190;SDS011;47004;51.366;12.348;2023-07-09T01:20:40;6.33;;;4.20;;
18190;SDS011;47004;51.366;12.348;2023-07-09T01:22:43;6.53;;;4.30;;
18190;SDS011;47004;51.366;12.348;2023-07-09T01:27:09;5.20;;;3.90;;
18190;SDS011;47004;51.366;12.348;2023-07-09T01:29:10;5.63;;;4.47;;
18190;SDS011;47004;51.366;12.348;2023-07-09T01:31:13;7.87;;;3.97;;
18190;SDS011;47004;51.366;12.348;2023-07-09T01:33:16;5.83;;;4.23;;
18190;SDS011;47004;51.366;12.348;2023-07-09T01:35:18;7.37;;;4.37;;
18190;SDS011;47004;51.366;12.348;2023-07-09T01:37:23;6.10;;;4.23;;
18190;SDS011;47004;51.366;12.348;2023-07-09T01:39:29;5.53;;;4.20;;
18190;SDS011;47004;51.366;12.348;2023-07-09T01:41:31;6.33;;;4.60;;
18190;SDS011;47004;51.366;12.348;2023-07-09T01:43:34;8.17;;;4.20;;
18190;SDS011;47004;51.366;12.348;2023-07-09T01:45:36;7.60;;;4.37;;
18190;SDS011;47004;51.366;12.348;2023-07-09T01:47:40;7.53;;;4.50;;
18190;SDS011;47004;51.366;12.348;2023-07-09T01:49:43;5.87;;;4.13;;
18190;SDS011;47004;51.366;12.348;2023-07-09T01:51:46;7.00;;;4.30;;
18190;SDS011;47004;51.366;12.348;2023-07-09T01:53:49;5.27;;;4.00;;
18190;SDS011;47004;51.366;12.348;2023-07-09T01:55:52;5.37;;;4.20;;
18190;SDS011;47004;51.366;12.348;2023-07-09T01:57:55;5.50;;;4.30;;
18190;SDS011;47004;51.366;12.348;2023-07-09T01:59:57;5.63;;;4.00;;
18190;SDS011;47004;51.366;12.348;2023-07-09T02:01:58;6.83;;;3.83;;
18190;SDS011;47004;51.366;12.348;2023-07-09T02:04:01;6.23;;;4.47;;
18190;SDS011;47004;51.366;12.348;2023-07-09T02:06:04;6.50;;;4.73;;
18190;SDS011;47004;51.366;12.348;2023-07-09T02:08:09;5.73;;;4.30;;
18190;SDS011;47004;51.366;12.348;2023-07-09T02:10:11;6.67;;;4.80;;
18190;SDS011;47004;51.366;12.348;2023-07-09T02:12:14;5.70;;;4.20;;
18190;SDS011;47004;51.366;12.348;2023-07-09T02:14:17;6.07;;;4.03;;
18190;SDS011;47004;51.366;12.348;2023-07-09T02:16:19;5.73;;;4.30;;
18190;SDS011;47004;51.366;12.348;2023-07-09T02:18:21;6.27;;;4.17;;
18190;SDS011;47004;51.366;12.348;2023-07-09T02:20:23;7.70;;;4.17;;
18190;SDS011;47004;51.366;12.348;2023-07-09T02:22:26;7.13;;;4.40;;
18190;SDS011;47004;51.366;12.348;2023-07-09T02:24:27;5.93;;;4.50;;
18190;SDS011;47004;51.366;12.348;2023-07-09T02:26:28;6.27;;;4.53;;
18190;SDS011;47004;51.366;12.348;2023-07-09T02:28:32;4.90;;;3.83;;
18190;SDS011;47004;51.366;12.348;2023-07-09T02:30:34;6.90;;;4.37;;
18190;SDS011;47004;51.366;12.348;2023-07-09T02:32:35;5.90;;;4.40;;
18190;SDS011;47004;51.366;12.348;2023-07-09T02:34:37;6.37;;;4.47;;
18190;SDS011;47004;51.366;12.348;2023-07-09T02:36:39;5.97;;;4.23;;
18190;SDS011;47004;51.366;12.348;2023-07-09T02:38:43;6.60;;;4.43;;
18190;SDS011;47004;51.366;12.348;2023-07-09T02:40:45;7.27;;;4.60;;
18190;SDS011;47004;51.366;12.348;2023-07-09T02:42:47;6.37;;;4.30;;
18190;SDS011;47004;51.366;12.348;2023-07-09T02:44:50;5.50;;;4.20;;
18190;SDS011;47004;51.366;12.348;2023-07-09T02:46:52;6.90;;;4.37;;
18190;SDS011;47004;51.366;12.348;2023-07-09T02:48:53;5.47;;;4.17;;
18190;SDS011;47004;51.366;12.348;2023-07-09T02:50:55;7.67;;;4.80;;
18190;SDS011;47004;51.366;12.348;2023-07-09T02:52:57;8.10;;;4.50;;
18190;SDS011;47004;51.366;12.348;2023-07-09T02:54:59;6.10;;;4.13;;
18190;SDS011;47004;51.366;12.348;2023-07-09T02:57:01;5.30;;;3.90;;
18190;SDS011;47004;51.366;12.348;2023-07-09T02:59:02;7.37;;;4.33;;
18190;SDS011;47004;51.366;12.348;2023-07-09T03:01:06;6.17;;;4.30;;
18190;SDS011;47004;51.366;12.348;2023-07-09T03:03:07;6.13;;;4.67;;
18190;SDS011;47004;51.366;12.348;2023-07-09T03:05:09;7.47;;;4.93;;
18190;SDS011;47004;51.366;12.348;2023-07-09T03:07:11;6.47;;;4.93;;
18190;SDS011;47004;51.366;12.348;2023-07-09T03:09:13;6.67;;;4.87;;
18190;SDS011;47004;51.366;12.348;2023-07-09T03:11:15;6.97;;;4.90;;
18190;SDS011;47004;51.366;12.348;2023-07-09T03:13:18;5.87;;;4.33;;
18190;SDS011;47004;51.366;12.348;2023-07-09T03:15:20;6.73;;;4.80;;
18190;SDS011;47004;51.366;12.348;2023-07-09T03:17:23;6.13;;;5.00;;
18190;SDS011;47004;51.366;12.348;2023-07-09T03:19:25;5.23;;;4.27;;
18190;SDS011;47004;51.366;12.348;2023-07-09T03:21:27;5.77;;;4.50;;
18190;SDS011;47004;51.366;12.348;2023-07-09T03:23:30;6.97;;;4.77;;
18190;SDS011;47004;51.366;12.348;2023-07-09T03:25:31;8.67;;;5.03;;
18190;SDS011;47004;51.366;12.348;2023-07-09T03:27:33;5.23;;;3.97;;
18190;SDS011;47004;51.366;12.348;2023-07-09T03:29:35;6.63;;;4.50;;
18190;SDS011;47004;51.366;12.348;2023-07-09T03:31:37;6.70;;;4.37;;
18190;SDS011;47004;51.366;12.348;2023-07-09T03:33:40;6.57;;;4.87;;
18190;SDS011;47004;51.366;12.348;2023-07-09T03:35:45;7.90;;;4.80;;
18190;SDS011;47004;51.366;12.348;2023-07-09T03:37:47;5.83;;;4.30;;
18190;SDS011;47004;51.366;12.348;2023-07-09T03:39:49;7.10;;;4.83;;
18190;SDS011;47004;51.366;12.348;2023-07-09T03:41:50;5.30;;;4.43;;
18190;SDS011;47004;51.366;12.348;2023-07-09T03:43:52;5.53;;;4.03;;
18190;SDS011;47004;51.366;12.348;2023-07-09T03:45:55;6.70;;;4.57;;
18190;SDS011;47004;51.366;12.348;2023-07-09T03:47:57;7.57;;;4.60;;
18190;SDS011;47004;51.366;12.348;2023-07-09T03:50:00;7.27;;;4.33;;
18190;SDS011;47004;51.366;12.348;2023-07-09T03:52:02;7.37;;;4.50;;
18190;SDS011;47004;51.366;12.348;2023-07-09T03:54:05;6.50;;;4.10;;
18190;SDS011;47004;51.366;12.348;2023-07-09T03:56:07;6.70;;;4.50;;
18190;SDS011;47004;51.366;12.348;2023-07-09T03:58:09;5.87;;;4.33;;
18190;SDS011;47004;51.366;12.348;2023-07-09T04:00:11;6.60;;;4.40;;
18190;SDS011;47004;51.366;12.348;2023-07-09T04:02:14;5.83;;;4.53;;
18190;SDS011;47004;51.366;12.348;2023-07-09T04:04:16;5.83;;;4.20;;
18190;SDS011;47004;51.366;12.348;2023-07-09T04:06:21;6.70;;;4.67;;
18190;SDS011;47004;51.366;12.348;2023-07-09T04:08:23;7.03;;;4.70;;
18190;SDS011;47004;51.366;12.348;2023-07-09T04:10:26;7.07;;;4.70;;
18190;SDS011;47004;51.366;12.348;2023-07-09T04:12:28;6.00;;;4.63;;
18190;SDS011;47004;51.366;12.348;2023-07-09T04:14:30;6.80;;;4.83;;
18190;SDS011;47004;51.366;12.348;2023-07-09T04:16:32;7.37;;;4.73;;
18190;SDS011;47004;51.366;12.348;2023-07-09T04:18:33;6.97;;;4.50;;
18190;SDS011;47004;51.366;12.348;2023-07-09T04:20:36;6.47;;;4.50;;
18190;SDS011;47004;51.366;12.348;2023-07-09T04:22:38;6.87;;;4.43;;
18190;SDS011;47004;51.366;12.348;2023-07-09T04:24:41;5.50;;;4.30;;
18190;SDS011;47004;51.366;12.348;2023-07-09T04:26:43;6.43;;;4.57;;
18190;SDS011;47004;51.366;12.348;2023-07-09T04:28:45;6.70;;;4.50;;
18190;SDS011;47004;51.366;12.348;2023-07-09T04:30:47;5.83;;;4.60;;
18190;SDS011;47004;51.366;12.348;2023-07-09T04:32:50;5.87;;;4.57;;
18190;SDS011;47004;51.366;12.348;2023-07-09T04:34:52;4.87;;;4.10;;
18190;SDS011;47004;51.366;12.348;2023-07-09T04:36:54;6.67;;;4.60;;
18190;SDS011;47004;51.366;12.348;2023-07-09T04:38:58;5.80;;;4.50;;
18190;SDS011;47004;51.366;12.348;2023-07-09T04:40:59;5.87;;;4.27;;
18190;SDS011;47004;51.366;12.348;2023-07-09T04:43:01;6.60;;;4.47;;
18190;SDS011;47004;51.366;12.348;2023-07-09T04:45:04;8.20;;;4.50;;
18190;SDS011;47004;51.366;12.348;2023-07-09T04:47:07;6.40;;;4.20;;
18190;SDS011;47004;51.366;12.348;2023-07-09T04:49:09;7.97;;;4.73;;
18190;SDS011;47004;51.366;12.348;2023-07-09T04:51:12;6.27;;;4.57;;
18190;SDS011;47004;51.366;12.348;2023-07-09T04:53:14;6.77;;;4.23;;
18190;SDS011;47004;51.366;12.348;2023-07-09T04:55:17;6.93;;;4.47;;
18190;SDS011;47004;51.366;12.348;2023-07-09T04:57:19;6.83;;;4.67;;
18190;SDS011;47004;51.366;12.348;2023-07-09T04:59:21;6.90;;;4.33;;
18190;SDS011;47004;51.366;12.348;2023-07-09T05:01:23;6.93;;;4.83;;
18190;SDS011;47004;51.366;12.348;2023-07-09T05:03:25;6.40;;;4.30;;
18190;SDS011;47004;51.366;12.348;2023-07-09T05:05:27;6.73;;;4.60;;
18190;SDS011;47004;51.366;12.348;2023-07-09T05:07:29;7.30;;;4.93;;
18190;SDS011;47004;51.366;12.348;2023-07-09T05:09:33;8.03;;;4.70;;
18190;SDS011;47004;51.366;12.348;2023-07-09T05:11:36;6.97;;;4.60;;
18190;SDS011;47004;51.366;12.348;2023-07-09T05:13:38;8.27;;;5.00;;
18190;SDS011;47004;51.366;12.348;2023-07-09T05:15:40;9.60;;;4.33;;
18190;SDS011;47004;51.366;12.348;2023-07-09T05:17:44;5.73;;;4.20;;
18190;SDS011;47004;51.366;12.348;2023-07-09T05:19:46;6.10;;;4.60;;
18190;SDS011;47004;51.366;12.348;2023-07-09T05:21:48;6.93;;;4.90;;
18190;SDS011;47004;51.366;12.348;2023-07-09T05:23:49;6.07;;;4.40;;
18190;SDS011;47004;51.366;12.348;2023-07-09T05:25:55;6.10;;;4.27;;
18190;SDS011;47004;51.366;12.348;2023-07-09T05:27:59;5.83;;;4.50;;
18190;SDS011;47004;51.366;12.348;2023-07-09T05:30:00;8.80;;;4.80;;
18190;SDS011;47004;51.366;12.348;2023-07-09T05:32:02;7.60;;;4.63;;
18190;SDS011;47004;51.366;12.348;2023-07-09T05:34:04;8.90;;;4.90;;
18190;SDS011;47004;51.366;12.348;2023-07-09T05:36:07;5.80;;;4.30;;
18190;SDS011;47004;51.366;12.348;2023-07-09T05:38:14;7.70;;;4.93;;
18190;SDS011;47004;51.366;12.348;2023-07-09T05:40:16;6.50;;;4.53;;
18190;SDS011;47004;51.366;12.348;2023-07-09T05:42:18;7.07;;;4.77;;
18190;SDS011;47004;51.366;12.348;2023-07-09T05:44:21;9.77;;;6.67;;
18190;SDS011;47004;51.366;12.348;2023-07-09T05:46:23;7.73;;;5.47;;
18190;SDS011;47004;51.366;12.348;2023-07-09T05:48:25;11.80;;;5.73;;
18190;SDS011;47004;51.366;12.348;2023-07-09T05:50:27;8.57;;;5.97;;
18190;SDS011;47004;51.366;12.348;2023-07-09T05:52:29;7.67;;;5.33;;
18190;SDS011;47004;51.366;12.348;2023-07-09T05:54:31;8.47;;;5.17;;
18190;SDS011;47004;51.366;12.348;2023-07-09T05:56:33;8.00;;;5.17;;
18190;SDS011;47004;51.366;12.348;2023-07-09T05:58:35;6.57;;;4.77;;
18190;SDS011;47004;51.366;12.348;2023-07-09T06:00:39;6.77;;;4.50;;
18190;SDS011;47004;51.366;12.348;2023-07-09T06:02:42;7.53;;;4.80;;
18190;SDS011;47004;51.366;12.348;2023-07-09T06:04:44;7.17;;;4.50;;
18190;SDS011;47004;51.366;12.348;2023-07-09T06:06:49;6.40;;;4.13;;
18190;SDS011;47004;51.366;12.348;2023-07-09T06:08:51;6.47;;;4.20;;
18190;SDS011;47004;51.366;12.348;2023-07-09T06:10:55;7.30;;;4.43;;
18190;SDS011;47004;51.366;12.348;2023-07-09T06:12:58;6.40;;;4.37;;
18190;SDS011;47004;51.366;12.348;2023-07-09T06:15:00;6.53;;;4.83;;
18190;SDS011;47004;51.366;12.348;2023-07-09T06:17:03;7.20;;;4.27;;
18190;SDS011;47004;51.366;12.348;2023-07-09T06:19:08;6.53;;;4.33;;
18190;SDS011;47004;51.366;12.348;2023-07-09T06:21:10;6.83;;;4.83;;
18190;SDS011;47004;51.366;12.348;2023-07-09T06:23:13;7.00;;;4.80;;
18190;SDS011;47004;51.366;12.348;2023-07-09T06:25:13;7.30;;;4.83;;
18190;SDS011;47004;51.366;12.348;2023-07-09T06:27:15;7.23;;;5.07;;
18190;SDS011;47004;51.366;12.348;2023-07-09T06:29:17;6.13;;;4.50;;
18190;SDS011;47004;51.366;12.348;2023-07-09T06:31:19;7.67;;;4.97;;
18190;SDS011;47004;51.366;12.348;2023-07-09T06:33:23;9.13;;;4.80;;
18190;SDS011;47004;51.366;12.348;2023-07-09T06:35:26;6.20;;;4.27;;
18190;SDS011;47004;51.366;12.348;2023-07-09T06:37:28;6.00;;;4.30;;
18190;SDS011;47004;51.366;12.348;2023-07-09T06:39:30;7.17;;;4.80;;
18190;SDS011;47004;51.366;12.348;2023-07-09T06:41:32;6.97;;;4.83;;
18190;SDS011;47004;51.366;12.348;2023-07-09T06:43:38;6.47;;;4.73;;
18190;SDS011;47004;51.366;12.348;2023-07-09T06:45:47;7.87;;;5.07;;
18190;SDS011;47004;51.366;12.348;2023-07-09T06:47:50;7.23;;;5.20;;
18190;SDS011;47004;51.366;12.348;2023-07-09T06:49:53;7.37;;;4.40;;
18190;SDS011;47004;51.366;12.348;2023-07-09T06:51:55;7.33;;;5.00;;
18190;SDS011;47004;51.366;12.348;2023-07-09T06:53:57;5.53;;;4.30;;
18190;SDS011;47004;51.366;12.348;2023-07-09T06:55:59;9.53;;;4.93;;
18190;SDS011;47004;51.366;12.348;2023-07-09T06:58:01;5.33;;;4.00;;
18190;SDS011;47004;51.366;12.348;2023-07-09T07:00:03;5.13;;;4.03;;
18190;SDS011;47004;51.366;12.348;2023-07-09T07:02:07;7.67;;;4.47;;
18190;SDS011;47004;51.366;12.348;2023-07-09T07:04:09;7.47;;;5.17;;
18190;SDS011;47004;51.366;12.348;2023-07-09T07:06:13;6.87;;;5.17;;
18190;SDS011;47004;51.366;12.348;2023-07-09T07:08:17;7.83;;;4.70;;
18190;SDS011;47004;51.366;12.348;2023-07-09T07:10:21;6.60;;;4.97;;
18190;SDS011;47004;51.366;12.348;2023-07-09T07:12:23;9.30;;;5.60;;
18190;SDS011;47004;51.366;12.348;2023-07-09T07:14:26;8.27;;;6.00;;
18190;SDS011;47004;51.366;12.348;2023-07-09T07:16:28;7.67;;;5.63;;
18190;SDS011;47004;51.366;12.348;2023-07-09T07:18:30;7.13;;;5.27;;
18190;SDS011;47004;51.366;12.348;2023-07-09T07:20:32;6.83;;;4.87;;
18190;SDS011;47004;51.366;12.348;2023-07-09T07:22:37;6.20;;;4.30;;
18190;SDS011;47004;51.366;12.348;2023-07-09T07:24:39;6.80;;;4.50;;
18190;SDS011;47004;51.366;12.348;2023-07-09T07:26:40;8.43;;;4.60;;
18190;SDS011;47004;51.366;12.348;2023-07-09T07:28:42;7.23;;;4.43;;
18190;SDS011;47004;51.366;12.348;2023-07-09T07:30:44;7.77;;;4.80;;
18190;SDS011;47004;51.366;12.348;2023-07-09T07:32:47;7.10;;;4.93;;
18190;SDS011;47004;51.366;12.348;2023-07-09T07:34:50;6.13;;;4.90;;
18190;SDS011;47004;51.366;12.348;2023-07-09T07:36:51;6.57;;;4.90;;
18190;SDS011;47004;51.366;12.348;2023-07-09T07:38:55;7.53;;;4.80;;
18190;SDS011;47004;51.366;12.348;2023-07-09T07:40:57;6.13;;;4.13;;
18190;SDS011;47004;51.366;12.348;2023-07-09T07:42:59;6.03;;;4.50;;
18190;SDS011;47004;51.366;12.348;2023-07-09T07:45:01;5.73;;;4.23;;
18190;SDS011;47004;51.366;12.348;2023-07-09T07:47:03;5.87;;;4.20;;
18190;SDS011;47004;51.366;12.348;2023-07-09T07:49:05;5.40;;;4.47;;
18190;SDS011;47004;51.366;12.348;2023-07-09T07:51:07;6.20;;;4.60;;
18190;SDS011;47004;51.366;12.348;2023-07-09T07:53:08;5.57;;;4.40;;
18190;SDS011;47004;51.366;12.348;2023-07-09T07:55:12;4.87;;;4.17;;
18190;SDS011;47004;51.366;12.348;2023-07-09T07:57:15;5.83;;;4.40;;
18190;SDS011;47004;51.366;12.348;2023-07-09T07:59:17;6.80;;;4.40;;
18190;SDS011;47004;51.366;12.348;2023-07-09T08:01:19;5.20;;;4.40;;
18190;SDS011;47004;51.366;12.348;2023-07-09T08:03:21;5.93;;;4.37;;
18190;SDS011;47004;51.366;12.348;2023-07-09T08:05:22;5.93;;;4.27;;
18190;SDS011;47004;51.366;12.348;2023-07-09T08:07:24;5.37;;;4.13;;
18190;SDS011;47004;51.366;12.348;2023-07-09T08:09:27;5.60;;;3.77;;
18190;SDS011;47004;51.366;12.348;2023-07-09T08:11:30;5.17;;;4.27;;
18190;SDS011;47004;51.366;12.348;2023-07-09T08:13:32;6.27;;;4.47;;
18190;SDS011;47004;51.366;12.348;2023-07-09T08:15:35;5.93;;;4.20;;
18190;SDS011;47004;51.366;12.348;2023-07-09T08:17:38;6.43;;;4.27;;
18190;SDS011;47004;51.366;12.348;2023-07-09T08:19:46;6.13;;;4.43;;
18190;SDS011;47004;51.366;12.348;2023-07-09T08:21:49;6.50;;;4.80;;
18190;SDS011;47004;51.366;12.348;2023-07-09T08:23:51;5.63;;;4.23;;
18190;SDS011;47004;51.366;12.348;2023-07-09T08:25:53;5.57;;;4.23;;
18190;SDS011;47004;51.366;12.348;2023-07-09T08:27:57;5.47;;;4.40;;
18190;SDS011;47004;51.366;12.348;2023-07-09T08:29:59;5.47;;;4.10;;
18190;SDS011;47004;51.366;12.348;2023-07-09T08:32:01;4.90;;;3.73;;
18190;SDS011;47004;51.366;12.348;2023-07-09T08:34:05;9.57;;;4.50;;
18190;SDS011;47004;51.366;12.348;2023-07-09T08:36:07;5.60;;;4.40;;
18190;SDS011;47004;51.366;12.348;2023-07-09T08:38:09;4.97;;;3.87;;
18190;SDS011;47004;51.366;12.348;2023-07-09T08:40:12;6.10;;;3.93;;
18190;SDS011;47004;51.366;12.348;2023-07-09T08:42:21;5.93;;;4.20;;
18190;SDS011;47004;51.366;12.348;2023-07-09T08:44:43;6.47;;;4.03;;
18190;SDS011;47004;51.366;12.348;2023-07-09T08:47:00;6.53;;;3.83;;
18190;SDS011;47004;51.366;12.348;2023-07-09T08:49:12;4.53;;;3.53;;
18190;SDS011;47004;51.366;12.348;2023-07-09T08:51:19;5.93;;;3.80;;
18190;SDS011;47004;51.366;12.348;2023-07-09T08:53:29;5.03;;;4.10;;
18190;SDS011;47004;51.366;12.348;2023-07-09T08:55:34;8.67;;;5.33;;
18190;SDS011;47004;51.366;12.348;2023-07-09T08:57:41;7.60;;;5.00;;
18190;SDS011;47004;51.366;12.348;2023-07-09T08:59:49;6.83;;;4.70;;
18190;SDS011;47004;51.366;12.348;2023-07-09T09:01:58;5.30;;;4.30;;
18190;SDS011;47004;51.366;12.348;2023-07-09T09:04:12;5.67;;;3.90;;
18190;SDS011;47004;51.366;12.348;2023-07-09T09:06:21;6.13;;;3.93;;
18190;SDS011;47004;51.366;12.348;2023-07-09T09:08:30;4.03;;;3.33;;
18190;SDS011;47004;51.366;12.348;2023-07-09T09:10:41;5.50;;;4.00;;
18190;SDS011;47004;51.366;12.348;2023-07-09T09:12:52;4.87;;;3.67;;
18190;SDS011;47004;51.366;12.348;2023-07-09T09:15:10;4.50;;;3.50;;
18190;SDS011;47004;51.366;12.348;2023-07-09T09:17:17;5.70;;;3.57;;
18190;SDS011;47004;51.366;12.348;2023-07-09T09:19:22;5.13;;;3.20;;
18190;SDS011;47004;51.366;12.348;2023-07-09T09:21:29;4.00;;;3.37;;
18190;SDS011;47004;51.366;12.348;2023-07-09T09:23:36;5.00;;;3.30;;
18190;SDS011;47004;51.366;12.348;2023-07-09T09:25:44;6.37;;;3.23;;
18190;SDS011;47004;51.366;12.348;2023-07-09T09:27:51;5.47;;;3.83;;
18190;SDS011;47004;51.366;12.348;2023-07-09T09:29:53;4.20;;;3.53;;
18190;SDS011;47004;51.366;12.348;2023-07-09T09:31:56;4.47;;;3.50;;
18190;SDS011;47004;51.366;12.348;2023-07-09T09:34:20;4.23;;;3.37;;
18190;SDS011;47004;51.366;12.348;2023-07-09T09:36:24;4.60;;;3.57;;
18190;SDS011;47004;51.366;12.348;2023-07-09T09:38:27;4.47;;;3.40;;
18190;SDS011;47004;51.366;12.348;2023-07-09T09:40:33;4.57;;;3.55;;
18190;SDS011;47004;51.366;12.348;2023-07-09T09:42:36;4.38;;;3.17;;
18190;SDS011;47004;51.366;12.348;2023-07-09T09:44:42;5.82;;;3.50;;
18190;SDS011;47004;51.366;12.348;2023-07-09T09:46:45;4.70;;;3.58;;
18190;SDS011;47004;51.366;12.348;2023-07-09T09:48:51;5.05;;;3.50;;
18190;SDS011;47004;51.366;12.348;2023-07-09T09:50:55;5.38;;;3.40;;
18190;SDS011;47004;51.366;12.348;2023-07-09T09:53:01;4.70;;;3.60;;
18190;SDS011;47004;51.366;12.348;2023-07-09T09:55:08;4.93;;;3.70;;
18190;SDS011;47004;51.366;12.348;2023-07-09T09:57:14;4.63;;;3.50;;
18190;SDS011;47004;51.366;12.348;2023-07-09T09:59:20;4.57;;;3.63;;
18190;SDS011;47004;51.366;12.348;2023-07-09T10:01:27;4.65;;;3.50;;
18190;SDS011;47004;51.366;12.348;2023-07-09T10:03:34;4.35;;;3.35;;
18190;SDS011;47004;51.366;12.348;2023-07-09T10:05:38;4.85;;;3.50;;
18190;SDS011;47004;51.366;12.348;2023-07-09T10:07:47;4.47;;;3.40;;
18190;SDS011;47004;51.366;12.348;2023-07-09T10:09:57;4.15;;;3.38;;
18190;SDS011;47004;51.366;12.348;2023-07-09T10:12:01;5.40;;;3.60;;
18190;SDS011;47004;51.366;12.348;2023-07-09T10:14:16;4.78;;;3.55;;
18190;SDS011;47004;51.366;12.348;2023-07-09T10:16:27;5.10;;;3.70;;
18190;SDS011;47004;51.366;12.348;2023-07-09T10:18:42;5.22;;;3.90;;
18190;SDS011;47004;51.366;12.348;2023-07-09T10:20:51;4.32;;;3.60;;
18190;SDS011;47004;51.366;12.348;2023-07-09T10:23:02;4.70;;;3.20;;
18190;SDS011;47004;51.366;12.348;2023-07-09T10:25:16;6.75;;;3.45;;
18190;SDS011;47004;51.366;12.348;2023-07-09T10:27:31;3.65;;;2.80;;
18190;SDS011;47004;51.366;12.348;2023-07-09T10:29:45;5.72;;;3.30;;
18190;SDS011;47004;51.366;12.348;2023-07-09T10:32:03;4.53;;;3.08;;
18190;SDS011;47004;51.366;12.348;2023-07-09T10:34:17;4.88;;;3.40;;
18190;SDS011;47004;51.366;12.348;2023-07-09T10:36:32;4.60;;;3.08;;
18190;SDS011;47004;51.366;12.348;2023-07-09T10:38:48;5.05;;;3.10;;
18190;SDS011;47004;51.366;12.348;2023-07-09T10:40:56;4.45;;;3.10;;
18190;SDS011;47004;51.366;12.348;2023-07-09T10:43:00;4.88;;;3.80;;
18190;SDS011;47004;51.366;12.348;2023-07-09T10:45:08;4.10;;;3.30;;
18190;SDS011;47004;51.366;12.348;2023-07-09T10:47:13;4.75;;;3.35;;
18190;SDS011;47004;51.366;12.348;2023-07-09T10:49:24;5.95;;;3.53;;
18190;SDS011;47004;51.366;12.348;2023-07-09T10:51:37;3.40;;;3.10;;
18190;SDS011;47004;51.366;12.348;2023-07-09T10:53:41;6.13;;;3.00;;
18190;SDS011;47004;51.366;12.348;2023-07-09T10:55:47;4.13;;;3.08;;
18190;SDS011;47004;51.366;12.348;2023-07-09T10:57:54;3.97;;;3.10;;
18190;SDS011;47004;51.366;12.348;2023-07-09T11:00:03;6.07;;;3.53;;
18190;SDS011;47004;51.366;12.348;2023-07-09T11:02:13;4.53;;;3.53;;
18190;SDS011;47004;51.366;12.348;2023-07-09T11:04:24;3.95;;;3.28;;
18190;SDS011;47004;51.366;12.348;2023-07-09T11:06:41;4.28;;;3.22;;
18190;SDS011;47004;51.366;12.348;2023-07-09T11:08:46;5.03;;;3.53;;
18190;SDS011;47004;51.366;12.348;2023-07-09T11:10:52;4.95;;;3.45;;
18190;SDS011;47004;51.366;12.348;2023-07-09T11:12:58;5.97;;;3.60;;
18190;SDS011;47004;51.366;12.348;2023-07-09T11:15:05;6.40;;;3.50;;
18190;SDS011;47004;51.366;12.348;2023-07-09T11:17:13;4.43;;;3.38;;
18190;SDS011;47004;51.366;12.348;2023-07-09T11:19:18;5.43;;;3.45;;
18190;SDS011;47004;51.366;12.348;2023-07-09T11:21:22;5.40;;;3.63;;
18190;SDS011;47004;51.366;12.348;2023-07-09T11:23:25;4.00;;;3.47;;
18190;SDS011;47004;51.366;12.348;2023-07-09T11:25:41;3.90;;;3.25;;
18190;SDS011;47004;51.366;12.348;2023-07-09T11:27:45;4.25;;;3.38;;
18190;SDS011;47004;51.366;12.348;2023-07-09T11:29:56;4.50;;;3.38;;
18190;SDS011;47004;51.366;12.348;2023-07-09T11:32:07;3.40;;;3.00;;
18190;SDS011;47004;51.366;12.348;2023-07-09T11:34:15;5.95;;;3.17;;
18190;SDS011;47004;51.366;12.348;2023-07-09T11:36:23;4.55;;;3.22;;
18190;SDS011;47004;51.366;12.348;2023-07-09T11:38:36;6.03;;;3.80;;
18190;SDS011;47004;51.366;12.348;2023-07-09T11:40:45;5.50;;;4.18;;
18190;SDS011;47004;51.366;12.348;2023-07-09T11:42:49;5.18;;;3.83;;
18190;SDS011;47004;51.366;12.348;2023-07-09T11:44:53;5.70;;;4.03;;
18190;SDS011;47004;51.366;12.348;2023-07-09T11:47:14;5.13;;;4.00;;
18190;SDS011;47004;51.366;12.348;2023-07-09T11:49:21;10.43;;;3.78;;
18190;SDS011;47004;51.366;12.348;2023-07-09T11:51:28;4.68;;;3.67;;
18190;SDS011;47004;51.366;12.348;2023-07-09T11:53:41;6.97;;;3.70;;
18190;SDS011;47004;51.366;12.348;2023-07-09T11:55:46;8.00;;;4.07;;
18190;SDS011;47004;51.366;12.348;2023-07-09T11:57:48;7.45;;;4.00;;
18190;SDS011;47004;51.366;12.348;2023-07-09T11:59:52;5.15;;;3.80;;
18190;SDS011;47004;51.366;12.348;2023-07-09T12:02:00;6.82;;;4.18;;
18190;SDS011;47004;51.366;12.348;2023-07-09T12:04:03;7.25;;;3.90;;
18190;SDS011;47004;51.366;12.348;2023-07-09T12:06:07;7.30;;;4.22;;
18190;SDS011;47004;51.366;12.348;2023-07-09T12:08:20;5.38;;;3.97;;
18190;SDS011;47004;51.366;12.348;2023-07-09T12:10:32;5.28;;;3.92;;
18190;SDS011;47004;51.366;12.348;2023-07-09T12:12:35;5.20;;;3.72;;
18190;SDS011;47004;51.366;12.348;2023-07-09T12:14:41;5.95;;;3.78;;
18190;SDS011;47004;51.366;12.348;2023-07-09T12:16:44;5.13;;;3.65;;
18190;SDS011;47004;51.366;12.348;2023-07-09T12:18:47;5.15;;;3.50;;
18190;SDS011;47004;51.366;12.348;2023-07-09T12:20:48;6.10;;;3.95;;